Terminal Aerodrome Forecast
Issued by NWS Grand Forks, ND

Home | Current Version | Previous Version | Text Only | Print | Product List | Glossary On
Versions: 1 2 3 4 5 6 7 8 9 10 11 12 13 14 15 16 17 18 19 20 21 22
493
FTUS43 KFGF 060539
TAFGFK
TAF
KGFK 060539Z 0606/0706 02010KT 1/2SM SN OVC006
     FM060900 35010KT 1SM -SN OVC008
     FM061700 32022G31KT 1/2SM SN BLSN OVC008
     FM070000 29026G36KT P6SM OVC010=

USA.gov is the U.S. government's official web portal to all federal, state and local government web resources and services.